Time;durP1;ratioP1;P1;durP2;ratioP2;P2;SDS_P1;SDS_P2;PMS_P1;PMS_P2;Temp;Humidity;BMP_temperature;BMP_pressure;BME280_temperature;BME280_humidity;BME280_pressure;Samples;Min_cycle;Max_cycle;Signal;HPM_P1;HPM_P2
2022/06/15 00:00:40;;;;;;;;;;;26.80;35.50;;;;;;5097518;28;1026;-43
2022/06/15 00:03:07;;;;;;;;;;;26.80;35.70;;;;;;5097181;28;1011;-43
2022/06/15 00:05:35;;;;;;;;;;;26.80;35.70;;;;;;5098218;28;1000;-43
2022/06/15 00:08:01;;;;;;;;;;;26.80;35.70;;;;;;5098235;28;936;-43
2022/06/15 00:10:28;;;;;;;;;;;26.90;35.50;;;;;;5098124;28;1973;-43
2022/06/15 00:12:55;;;;;;;;;;;26.80;35.60;;;;;;5101948;28;988;-41
2022/06/15 00:15:22;;;;;;;;;;;26.90;35.60;;;;;;5100896;28;1023;-41
2022/06/15 00:17:48;;;;;;;;;;;26.90;35.70;;;;;;5101599;28;1135;-42
2022/06/15 00:20:15;;;;;;;;;;;26.90;35.70;;;;;;5101441;28;933;-41
2022/06/15 00:22:43;;;;;;;;;;;26.90;35.60;;;;;;5101894;28;979;-41
2022/06/15 00:25:10;;;;;;;;;;;26.90;35.50;;;;;;5100877;28;1004;-41
2022/06/15 00:27:37;;;;;;;;;;;26.90;35.60;;;;;;5101059;28;1022;-41
2022/06/15 00:30:04;;;;;;;;;;;26.90;35.70;;;;;;5101664;28;1905;-41
2022/06/15 00:32:31;;;;;;;;;;;26.90;35.70;;;;;;5101353;28;981;-42
2022/06/15 00:34:58;;;;;;;;;;;26.90;35.70;;;;;;5101313;28;1007;-42
2022/06/15 00:37:25;;;;;;;;;;;26.90;35.50;;;;;;5101299;28;948;-41
2022/06/15 00:39:53;;;;;;;;;;;26.90;35.70;;;;;;5101073;28;1012;-42
2022/06/15 00:42:20;;;;;;;;;;;26.90;35.70;;;;;;5100735;28;1077;-42
2022/06/15 00:44:49;;;;;;;;;;;27.00;35.70;;;;;;5100741;28;1007;-42
2022/06/15 00:47:18;;;;;;;;;;;27.00;35.60;;;;;;5100599;28;992;-42
2022/06/15 00:49:47;;;;;;;;;;;27.00;35.60;;;;;;5100852;28;989;-42
2022/06/15 00:52:16;;;;;;;;;;;27.00;35.80;;;;;;5101060;28;1897;-42
2022/06/15 00:54:43;;;;;;;;;;;27.00;35.70;;;;;;5100657;28;980;-42
2022/06/15 00:57:12;;;;;;;;;;;26.90;35.70;;;;;;5100891;28;963;-42
2022/06/15 00:59:41;;;;;;;;;;;27.00;35.70;;;;;;5101120;28;869;-42
2022/06/15 01:02:07;;;;;;;;;;;27.00;35.70;;;;;;5099888;28;980;-43
2022/06/15 01:04:40;;;;;;;;;;;27.00;35.70;;;;;;5100438;28;941;-45
2022/06/15 01:07:14;;;;;;;;;;;27.00;35.70;;;;;;5100909;28;959;-45
2022/06/15 01:09:47;;;;;;;;;;;27.00;35.70;;;;;;5099774;28;915;-44
2022/06/15 01:12:17;;;;;;;;;;;27.00;35.60;;;;;;5100116;28;1901;-43
2022/06/15 01:14:50;;;;;;;;;;;27.00;35.70;;;;;;5099390;28;1839;-44
2022/06/15 01:17:28;;;;;;;;;;;27.00;35.70;;;;;;5101032;28;1113;-45
2022/06/15 01:20:06;;;;;;;;;;;27.00;35.70;;;;;;5100562;28;1018;-45
2022/06/15 01:22:41;;;;;;;;;;;26.90;35.70;;;;;;5100420;28;940;-44
2022/06/15 01:25:26;;;;;;;;;;;27.00;35.80;;;;;;5100386;28;955;-44
2022/06/15 01:28:06;;;;;;;;;;;27.00;35.80;;;;;;5090206;28;1347;-45
2022/06/15 01:30:39;;;;;;;;;;;27.00;35.70;;;;;;5099195;28;1898;-44
2022/06/15 01:33:10;;;;;;;;;;;27.00;35.70;;;;;;5099492;28;979;-45
2022/06/15 01:35:41;;;;;;;;;;;27.00;35.70;;;;;;5100066;28;1016;-45
2022/06/15 01:38:21;;;;;;;;;;;27.00;35.60;;;;;;5100111;28;975;-44
2022/06/15 01:40:49;;;;;;;;;;;26.90;35.70;;;;;;5100408;28;936;-43
2022/06/15 01:43:18;;;;;;;;;;;26.90;35.70;;;;;;5099816;28;1020;-43
2022/06/15 01:45:47;;;;;;;;;;;27.00;35.80;;;;;;5100152;28;978;-43
2022/06/15 01:48:15;;;;;;;;;;;26.90;35.70;;;;;;5099419;28;977;-43
2022/06/15 01:50:45;;;;;;;;;;;26.90;35.70;;;;;;5099418;28;1922;-44
2022/06/15 01:53:13;;;;;;;;;;;27.00;35.70;;;;;;5100028;28;995;-44
2022/06/15 01:55:43;;;;;;;;;;;26.90;35.70;;;;;;5099368;28;956;-44
2022/06/15 01:58:10;;;;;;;;;;;26.90;35.70;;;;;;5098286;28;917;-44
2022/06/15 02:00:37;;;;;;;;;;;27.00;35.60;;;;;;5098274;28;976;-44
2022/06/15 02:03:09;;;;;;;;;;;26.90;35.70;;;;;;5099209;28;1046;-44
2022/06/15 02:05:38;;;;;;;;;;;27.00;35.60;;;;;;5098256;28;926;-44
2022/06/15 02:11:10;;;;;;;;;;;27.00;35.70;;;;;;5099106;28;1898;-44
2022/06/15 02:13:42;;;;;;;;;;;27.00;35.70;;;;;;5099191;28;944;-44
2022/06/15 02:16:11;;;;;;;;;;;27.00;35.70;;;;;;5099468;28;1181;-44
2022/06/15 02:18:40;;;;;;;;;;;27.00;35.70;;;;;;5099361;28;947;-45
2022/06/15 02:21:09;;;;;;;;;;;26.90;35.90;;;;;;5097181;28;1011;-44
2022/06/15 02:23:37;;;;;;;;;;;27.00;36.80;;;;;;5097772;28;903;-44
2022/06/15 02:26:05;;;;;;;;;;;27.00;35.70;;;;;;5098868;28;1007;-44
2022/06/15 02:28:34;;;;;;;;;;;27.00;35.70;;;;;;5098797;28;1042;-44
2022/06/15 02:31:01;;;;;;;;;;;27.00;35.70;;;;;;5098563;28;1906;-44
2022/06/15 02:33:28;;;;;;;;;;;27.00;35.70;;;;;;5097610;28;980;-43
2022/06/15 02:35:57;;;;;;;;;;;27.00;35.60;;;;;;5097130;28;1121;-44
2022/06/15 02:38:26;;;;;;;;;;;26.90;35.80;;;;;;5099180;28;1019;-44
2022/06/15 02:40:52;;;;;;;;;;;26.90;35.80;;;;;;5099459;28;1038;-44
2022/06/15 02:43:21;;;;;;;;;;;26.90;35.80;;;;;;5098133;28;996;-44
2022/06/15 02:45:49;;;;;;;;;;;26.90;35.80;;;;;;5098261;28;1017;-44
2022/06/15 02:48:16;;;;;;;;;;;27.00;35.70;;;;;;5097958;28;961;-45
2022/06/15 02:50:46;;;;;;;;;;;27.00;35.50;;;;;;5099079;28;936;-49
2022/06/15 02:53:16;;;;;;;;;;;27.00;35.60;;;;;;5098834;28;932;-44
2022/06/15 02:55:43;;;;;;;;;;;27.00;35.60;;;;;;5098093;28;995;-44
2022/06/15 02:58:11;;;;;;;;;;;27.00;35.60;;;;;;5097051;28;1613;-42
2022/06/15 03:00:38;;;;;;;;;;;26.90;35.60;;;;;;5096742;28;992;-42
2022/06/15 03:03:05;;;;;;;;;;;27.00;35.70;;;;;;5097286;28;979;-42
2022/06/15 03:05:32;;;;;;;;;;;27.00;35.60;;;;;;5096375;28;1027;-41
2022/06/15 03:07:59;;;;;;;;;;;27.00;35.40;;;;;;5096665;28;1380;-41
2022/06/15 03:10:27;;;;;;;;;;;27.00;35.40;;;;;;5096735;28;935;-41
2022/06/15 03:12:54;;;;;;;;;;;26.90;35.50;;;;;;5096158;28;1988;-41
2022/06/15 03:15:21;;;;;;;;;;;26.90;35.40;;;;;;5095476;28;1068;-41
2022/06/15 03:17:47;;;;;;;;;;;26.90;35.50;;;;;;5096174;28;1078;-41
2022/06/15 03:20:14;;;;;;;;;;;26.90;35.40;;;;;;5096283;28;1073;-42
2022/06/15 03:22:42;;;;;;;;;;;27.00;35.30;;;;;;5096741;28;875;-42
2022/06/15 03:25:09;;;;;;;;;;;27.00;35.20;;;;;;5096747;28;1007;-42
2022/06/15 03:27:37;;;;;;;;;;;26.90;35.30;;;;;;5096479;28;893;-41
2022/06/15 03:30:06;;;;;;;;;;;26.90;35.20;;;;;;5096442;28;925;-42
2022/06/15 03:32:33;;;;;;;;;;;26.90;35.10;;;;;;5096577;28;1981;-42
2022/06/15 03:35:00;;;;;;;;;;;27.00;35.20;;;;;;5095231;28;981;-42
2022/06/15 03:37:26;;;;;;;;;;;27.00;35.20;;;;;;5097047;28;925;-41
2022/06/15 03:39:54;;;;;;;;;;;27.00;35.20;;;;;;5097454;28;976;-42
2022/06/15 03:42:22;;;;;;;;;;;26.90;35.20;;;;;;5097164;28;1016;-42
2022/06/15 03:44:50;;;;;;;;;;;26.90;35.10;;;;;;5095669;28;999;-42
2022/06/15 03:47:18;;;;;;;;;;;26.90;35.10;;;;;;5098976;28;975;-42
2022/06/15 03:49:45;;;;;;;;;;;26.90;35.10;;;;;;5100871;28;932;-41
2022/06/15 03:52:12;;;;;;;;;;;26.90;35.10;;;;;;5100866;28;1991;-41
2022/06/15 03:54:39;;;;;;;;;;;26.90;35.10;;;;;;5101124;28;969;-41
2022/06/15 03:57:07;;;;;;;;;;;26.90;35.10;;;;;;5101834;28;939;-41
2022/06/15 03:59:34;;;;;;;;;;;26.90;35.10;;;;;;5099906;28;959;-41
2022/06/15 04:02:02;;;;;;;;;;;26.90;35.00;;;;;;5101093;28;994;-41
2022/06/15 04:04:28;;;;;;;;;;;26.90;35.10;;;;;;5101516;28;857;-41
2022/06/15 04:06:56;;;;;;;;;;;27.00;35.10;;;;;;5100108;28;1000;-41
2022/06/15 04:09:22;;;;;;;;;;;26.90;35.10;;;;;;5099723;28;987;-41
2022/06/15 04:12:08;;;;;;;;;;;26.90;35.10;;;;;;5100380;28;1914;-41
2022/06/15 04:14:35;;;;;;;;;;;26.80;35.10;;;;;;5099482;28;885;-41
2022/06/15 04:17:04;;;;;;;;;;;26.80;35.50;;;;;;5099735;28;1004;-42
2022/06/15 04:19:32;;;;;;;;;;;26.70;35.60;;;;;;5099025;28;924;-41
2022/06/15 04:21:59;;;;;;;;;;;26.80;35.60;;;;;;5098349;28;1007;-41
2022/06/15 04:24:27;;;;;;;;;;;26.80;35.60;;;;;;5098888;28;1034;-41
2022/06/15 04:26:53;;;;;;;;;;;26.80;35.70;;;;;;5098607;28;1148;-42
2022/06/15 04:29:20;;;;;;;;;;;26.80;35.70;;;;;;5098711;28;972;-41
2022/06/15 04:31:47;;;;;;;;;;;26.80;35.80;;;;;;5098337;28;1971;-41
2022/06/15 04:34:16;;;;;;;;;;;26.80;35.80;;;;;;5098508;28;968;-42
2022/06/15 04:36:44;;;;;;;;;;;26.80;35.80;;;;;;5098724;28;991;-42
2022/06/15 04:39:11;;;;;;;;;;;26.70;35.80;;;;;;5098380;28;941;-45
2022/06/15 04:41:38;;;;;;;;;;;26.80;35.80;;;;;;5097336;28;998;-45
2022/06/15 04:44:06;;;;;;;;;;;26.80;35.80;;;;;;5098564;28;986;-45
2022/06/15 04:46:33;;;;;;;;;;;26.70;35.90;;;;;;5097852;28;1018;-45
2022/06/15 04:49:00;;;;;;;;;;;26.80;35.80;;;;;;5097167;28;936;-43
2022/06/15 04:51:29;;;;;;;;;;;26.80;35.90;;;;;;5097535;28;1976;-42
2022/06/15 04:53:57;;;;;;;;;;;26.80;35.90;;;;;;5097337;28;924;-42
2022/06/15 04:56:25;;;;;;;;;;;26.80;35.90;;;;;;5096899;28;1007;-42
2022/06/15 04:58:52;;;;;;;;;;;26.70;35.90;;;;;;5095809;28;1011;-42
2022/06/15 05:01:18;;;;;;;;;;;26.70;36.00;;;;;;5097237;28;1029;-42
2022/06/15 05:03:45;;;;;;;;;;;26.70;36.10;;;;;;5097148;28;1003;-42
2022/06/15 05:06:13;;;;;;;;;;;26.80;36.10;;;;;;5096533;28;968;-42
2022/06/15 05:08:42;;;;;;;;;;;26.70;36.10;;;;;;5096799;28;1022;-42
2022/06/15 05:11:08;;;;;;;;;;;26.70;36.10;;;;;;5095000;28;973;-42
2022/06/15 05:13:35;;;;;;;;;;;26.80;36.10;;;;;;5095779;28;1905;-42
2022/06/15 05:16:02;;;;;;;;;;;26.80;36.20;;;;;;5095110;28;991;-42
2022/06/15 05:18:28;;;;;;;;;;;26.80;36.10;;;;;;5095421;28;1027;-42
2022/06/15 05:20:55;;;;;;;;;;;26.70;36.00;;;;;;5094667;28;917;-43
2022/06/15 05:23:22;;;;;;;;;;;26.80;36.10;;;;;;5094074;28;987;-44
2022/06/15 05:25:50;;;;;;;;;;;26.80;36.10;;;;;;5093369;28;916;-44
2022/06/15 05:28:17;;;;;;;;;;;26.80;36.20;;;;;;5093843;28;1026;-44
2022/06/15 05:30:44;;;;;;;;;;;26.90;36.00;;;;;;5094207;28;956;-45
2022/06/15 05:33:10;;;;;;;;;;;26.80;36.10;;;;;;5094826;28;1902;-44
2022/06/15 05:35:37;;;;;;;;;;;26.80;36.20;;;;;;5094492;28;1014;-43
2022/06/15 05:38:04;;;;;;;;;;;26.80;36.20;;;;;;5095102;28;1004;-43
2022/06/15 05:40:31;;;;;;;;;;;26.80;36.20;;;;;;5095510;28;952;-42
2022/06/15 05:42:59;;;;;;;;;;;26.80;36.20;;;;;;5093824;28;1158;-42
2022/06/15 05:45:26;;;;;;;;;;;26.90;36.20;;;;;;5095562;28;939;-45
2022/06/15 05:47:53;;;;;;;;;;;26.80;36.20;;;;;;5095150;28;1022;-46
2022/06/15 05:50:19;;;;;;;;;;;26.90;36.30;;;;;;5095668;28;1014;-45
2022/06/15 05:52:46;;;;;;;;;;;26.90;36.20;;;;;;5095541;28;1902;-44
2022/06/15 05:55:13;;;;;;;;;;;26.90;36.20;;;;;;5095281;28;1006;-45
2022/06/15 05:57:40;;;;;;;;;;;26.90;36.20;;;;;;5096599;28;1181;-44
2022/06/15 06:00:10;;;;;;;;;;;26.90;36.30;;;;;;5097149;28;941;-44
2022/06/15 06:02:37;;;;;;;;;;;26.90;36.40;;;;;;5097325;28;1029;-42
2022/06/15 06:05:04;;;;;;;;;;;26.90;36.30;;;;;;5095403;28;940;-42
2022/06/15 06:07:31;;;;;;;;;;;27.00;36.30;;;;;;5095033;28;1024;-44
2022/06/15 06:09:58;;;;;;;;;;;27.00;36.30;;;;;;5094856;28;1008;-44
2022/06/15 06:12:24;;;;;;;;;;;27.00;36.40;;;;;;5094823;28;1909;-44
2022/06/15 06:14:53;;;;;;;;;;;27.00;36.20;;;;;;5094360;28;1000;-44
2022/06/15 06:17:21;;;;;;;;;;;27.00;36.30;;;;;;5093584;28;1121;-44
2022/06/15 06:19:48;;;;;;;;;;;27.00;36.40;;;;;;5094766;28;1028;-44
2022/06/15 06:22:15;;;;;;;;;;;26.90;36.40;;;;;;5094620;28;968;-42
2022/06/15 06:24:41;;;;;;;;;;;27.00;36.30;;;;;;5095381;28;1039;-42
2022/06/15 06:27:09;;;;;;;;;;;27.00;36.30;;;;;;5094327;28;1030;-41
2022/06/15 06:29:35;;;;;;;;;;;27.10;36.30;;;;;;5094034;28;1027;-41
2022/06/15 06:32:03;;;;;;;;;;;27.10;36.30;;;;;;5095236;28;1879;-41
2022/06/15 06:34:31;;;;;;;;;;;27.00;36.30;;;;;;5094466;28;1052;-41
2022/06/15 06:36:58;;;;;;;;;;;27.00;36.40;;;;;;5093652;28;964;-42
2022/06/15 06:39:27;;;;;;;;;;;27.00;36.30;;;;;;5094524;28;976;-41
2022/06/15 06:41:54;;;;;;;;;;;27.10;36.30;;;;;;5094742;28;943;-41
2022/06/15 06:44:21;;;;;;;;;;;27.00;36.40;;;;;;5094569;28;1160;-41
2022/06/15 06:46:48;;;;;;;;;;;27.10;36.50;;;;;;5094086;28;1026;-42
2022/06/15 06:49:16;;;;;;;;;;;27.10;36.30;;;;;;5094966;28;948;-41
2022/06/15 06:51:45;;;;;;;;;;;27.10;36.40;;;;;;5093901;28;971;-41
2022/06/15 06:54:13;;;;;;;;;;;27.10;36.20;;;;;;5093251;28;1906;-42
2022/06/15 06:56:39;;;;;;;;;;;27.10;36.30;;;;;;5093260;28;982;-41
2022/06/15 06:59:07;;;;;;;;;;;27.10;36.30;;;;;;5092504;28;963;-45
2022/06/15 07:01:34;;;;;;;;;;;27.10;36.20;;;;;;5092782;28;929;-44
2022/06/15 07:04:00;;;;;;;;;;;27.10;36.40;;;;;;5093038;28;984;-44
2022/06/15 07:06:27;;;;;;;;;;;27.10;36.30;;;;;;5092271;28;961;-44
2022/06/15 07:08:56;;;;;;;;;;;27.00;36.20;;;;;;5092997;28;964;-43
2022/06/15 07:11:23;;;;;;;;;;;27.10;36.40;;;;;;5091907;28;1008;-43
2022/06/15 07:13:50;;;;;;;;;;;27.00;36.50;;;;;;5091681;28;1914;-44
2022/06/15 07:16:19;;;;;;;;;;;27.00;36.30;;;;;;5091767;28;1133;-44
2022/06/15 07:18:46;;;;;;;;;;;27.00;36.40;;;;;;5092880;28;1018;-44
2022/06/15 07:21:14;;;;;;;;;;;26.90;37.40;;;;;;5091461;28;956;-44
2022/06/15 07:23:41;;;;;;;;;;;26.90;36.50;;;;;;5092861;28;960;-43
2022/06/15 07:26:11;;;;;;;;;;;26.90;36.60;;;;;;5092674;28;1003;-42
2022/06/15 07:28:38;;;;;;;;;;;26.90;36.50;;;;;;5092691;28;984;-44
2022/06/15 07:31:05;;;;;;;;;;;26.80;36.70;;;;;;5093709;28;971;-43
2022/06/15 07:33:33;;;;;;;;;;;26.80;36.80;;;;;;5092687;28;1882;-43
2022/06/15 07:36:00;;;;;;;;;;;26.80;36.80;;;;;;5093158;28;1031;-44
2022/06/15 07:38:27;;;;;;;;;;;26.80;36.80;;;;;;5092608;28;1160;-44
2022/06/15 07:40:54;;;;;;;;;;;26.80;36.80;;;;;;5093742;28;916;-44
2022/06/15 07:43:22;;;;;;;;;;;26.70;36.80;;;;;;5092781;28;939;-44
2022/06/15 07:45:49;;;;;;;;;;;26.80;36.80;;;;;;5092294;28;984;-43
2022/06/15 07:50:59;;;;;;;;;;;26.80;36.70;;;;;;5051104;28;1204;-43
2022/06/15 07:53:26;;;;;;;;;;;26.90;36.90;;;;;;5093317;28;1996;-44
2022/06/15 07:55:54;;;;;;;;;;;26.80;36.90;;;;;;5093099;28;968;-43
2022/06/15 07:58:21;;;;;;;;;;;26.80;37.00;;;;;;5094588;28;932;-45
2022/06/15 08:00:50;;;;;;;;;;;26.80;36.80;;;;;;5093182;28;932;-43
2022/06/15 08:03:18;;;;;;;;;;;26.90;37.00;;;;;;5093252;28;920;-43
2022/06/15 08:05:46;;;;;;;;;;;27.00;36.60;;;;;;5094590;28;873;-43
2022/06/15 08:08:13;;;;;;;;;;;27.00;36.60;;;;;;5094443;28;1471;-39
2022/06/15 08:10:40;;;;;;;;;;;27.00;36.40;;;;;;5095079;28;865;-39
2022/06/15 08:13:08;;;;;;;;;;;26.90;36.90;;;;;;5094292;28;1983;-40
2022/06/15 08:15:35;;;;;;;;;;;26.90;36.90;;;;;;5094480;28;992;-38
2022/06/15 08:18:04;;;;;;;;;;;26.90;36.60;;;;;;5094236;28;1127;-39
2022/06/15 08:20:35;;;;;;;;;;;26.90;36.90;;;;;;5091950;28;1788;-39
2022/06/15 08:23:03;;;;;;;;;;;26.90;36.90;;;;;;5074990;28;1034;-41
2022/06/15 08:25:33;;;;;;;;;;;26.90;37.10;;;;;;5074749;28;989;-38
2022/06/15 08:28:00;;;;;;;;;;;26.90;36.90;;;;;;5074449;28;995;-38
2022/06/15 08:30:27;;;;;;;;;;;26.90;37.10;;;;;;5072358;28;976;-40
2022/06/15 08:33:50;;;;;;;;;;;26.90;36.10;;;;;;5110672;27;1349;-46
2022/06/15 08:36:17;;;;;;;;;;;27.10;37.20;;;;;;5111353;28;873;-47
2022/06/15 08:38:44;;;;;;;;;;;27.10;37.00;;;;;;5110716;28;1145;-46
2022/06/15 08:41:13;;;;;;;;;;;27.10;37.10;;;;;;5110224;28;932;-47
2022/06/15 08:43:48;;;;;;;;;;;27.10;37.10;;;;;;5110419;28;1062;-47
2022/06/15 08:46:19;;;;;;;;;;;27.10;37.20;;;;;;5111501;28;888;-47
2022/06/15 08:48:56;;;;;;;;;;;27.00;37.00;;;;;;5110658;28;908;-47
2022/06/15 08:51:25;;;;;;;;;;;27.00;36.90;;;;;;5110254;28;910;-48
2022/06/15 08:53:54;;;;;;;;;;;27.00;37.10;;;;;;5110730;28;1051;-48
2022/06/15 08:56:24;;;;;;;;;;;27.00;37.10;;;;;;5110395;28;1010;-48
2022/06/15 08:58:54;;;;;;;;;;;27.00;37.20;;;;;;5110493;28;988;-47
2022/06/15 09:01:27;;;;;;;;;;;27.00;37.20;;;;;;5111137;28;984;-48
2022/06/15 09:03:59;;;;;;;;;;;27.00;37.10;;;;;;5110891;28;1040;-49
2022/06/15 09:06:33;;;;;;;;;;;27.00;37.30;;;;;;5110395;28;1835;-47
2022/06/15 09:09:08;;;;;;;;;;;27.00;37.10;;;;;;5109605;28;944;-48
2022/06/15 09:11:45;;;;;;;;;;;27.00;37.30;;;;;;5108860;28;1906;-47
2022/06/15 09:14:19;;;;;;;;;;;27.00;37.40;;;;;;5110807;28;967;-46
2022/06/15 09:16:50;;;;;;;;;;;27.00;37.20;;;;;;5110276;28;1035;-47
2022/06/15 09:19:20;;;;;;;;;;;27.00;37.20;;;;;;5110211;28;1793;-47
2022/06/15 09:21:50;;;;;;;;;;;27.00;37.10;;;;;;5110541;28;1027;-47
2022/06/15 09:24:18;;;;;;;;;;;27.00;37.10;;;;;;5110851;28;964;-47
2022/06/15 09:26:49;;;;;;;;;;;27.00;37.00;;;;;;5109924;28;1000;-47
2022/06/15 09:29:18;;;;;;;;;;;27.00;37.30;;;;;;5109718;28;889;-48
2022/06/15 09:31:49;;;;;;;;;;;27.00;37.30;;;;;;5108806;28;1968;-48
2022/06/15 09:34:19;;;;;;;;;;;27.00;37.30;;;;;;5109125;28;848;-47
2022/06/15 09:36:48;;;;;;;;;;;27.00;37.40;;;;;;5108277;28;923;-47
2022/06/15 09:39:16;;;;;;;;;;;27.00;37.50;;;;;;5109141;28;1062;-48
2022/06/15 09:41:47;;;;;;;;;;;27.00;37.10;;;;;;5110507;28;1004;-47
2022/06/15 09:44:16;;;;;;;;;;;27.00;37.20;;;;;;5102141;28;933;-48
2022/06/15 09:46:48;;;;;;;;;;;27.00;37.20;;;;;;5095436;28;1010;-47
2022/06/15 09:49:21;;;;;;;;;;;27.00;37.20;;;;;;5095734;28;984;-47
2022/06/15 09:51:55;;;;;;;;;;;27.00;37.40;;;;;;5096629;28;1902;-47
2022/06/15 09:54:25;;;;;;;;;;;27.00;37.30;;;;;;5096487;28;1000;-47
2022/06/15 09:56:52;;;;;;;;;;;27.00;37.20;;;;;;5096145;28;947;-46
2022/06/15 09:59:20;;;;;;;;;;;27.00;37.30;;;;;;5095268;28;885;-45
2022/06/15 10:01:47;;;;;;;;;;;27.10;37.20;;;;;;5095694;28;951;-44
2022/06/15 10:04:16;;;;;;;;;;;27.20;37.50;;;;;;5095635;28;999;-43
2022/06/15 10:06:45;;;;;;;;;;;27.20;37.40;;;;;;5095236;28;924;-42
2022/06/15 10:09:15;;;;;;;;;;;27.20;37.40;;;;;;5095928;28;936;-43
2022/06/15 10:11:44;;;;;;;;;;;27.20;37.80;;;;;;5095461;28;982;-43
2022/06/15 10:14:18;;;;;;;;;;;27.20;38.10;;;;;;5095689;28;1910;-43
2022/06/15 10:16:51;;;;;;;;;;;27.30;38.20;;;;;;5095009;28;1011;-44
2022/06/15 10:19:18;;;;;;;;;;;27.40;38.70;;;;;;5095199;28;988;-43
2022/06/15 10:21:51;;;;;;;;;;;27.40;38.30;;;;;;5096170;28;1015;-44
2022/06/15 10:24:22;;;;;;;;;;;27.40;39.10;;;;;;5095003;28;955;-44
2022/06/15 10:26:49;;;;;;;;;;;27.40;39.50;;;;;;5093335;28;928;-45
2022/06/15 10:29:27;;;;;;;;;;;27.40;39.80;;;;;;5094020;28;988;-44
2022/06/15 10:32:12;;;;;;;;;;;27.40;40.20;;;;;;5093441;28;1089;-46
2022/06/15 10:34:50;;;;;;;;;;;27.40;40.50;;;;;;5081080;28;1536;-44
2022/06/15 10:37:19;;;;;;;;;;;27.50;40.70;;;;;;5094319;28;888;-44
2022/06/15 10:39:49;;;;;;;;;;;27.50;40.00;;;;;;5094129;28;948;-44
2022/06/15 10:42:19;;;;;;;;;;;27.50;41.10;;;;;;5095471;28;997;-44
2022/06/15 10:44:51;;;;;;;;;;;27.60;39.80;;;;;;5093416;28;658;-44
2022/06/15 10:47:19;;;;;;;;;;;27.60;39.80;;;;;;5092795;28;885;-45
2022/06/15 10:49:47;;;;;;;;;;;27.70;39.20;;;;;;5093503;28;989;-44
2022/06/15 10:52:22;;;;;;;;;;;27.70;39.20;;;;;;5092349;28;1901;-44
2022/06/15 11:03:29;;;;;;;;;;;27.50;38.70;;;;;;5030503;28;1223;-48
2022/06/15 11:05:59;;;;;;;;;;;27.60;38.90;;;;;;5030069;28;826;-51
2022/06/15 11:08:29;;;;;;;;;;;27.70;38.60;;;;;;5057951;28;1012;-49
2022/06/15 11:11:11;;;;;;;;;;;27.70;38.50;;;;;;5092881;28;996;-50
2022/06/15 11:13:40;;;;;;;;;;;27.60;38.50;;;;;;5092995;28;1985;-52
2022/06/15 11:19:13;;;;;;;;;;;27.70;38.50;;;;;;5091838;28;602;-50
2022/06/15 11:21:42;;;;;;;;;;;27.70;38.10;;;;;;5090559;28;991;-48
2022/06/15 11:24:15;;;;;;;;;;;27.70;38.30;;;;;;5092084;28;995;-47
2022/06/15 11:26:55;;;;;;;;;;;27.80;38.30;;;;;;5091495;28;928;-50
2022/06/15 11:29:39;;;;;;;;;;;27.80;38.00;;;;;;5092683;28;880;-42
2022/06/15 11:32:11;;;;;;;;;;;27.70;38.60;;;;;;5092362;28;1105;-42
2022/06/15 11:34:41;;;;;;;;;;;27.60;38.90;;;;;;5092187;28;1906;-42
2022/06/15 11:37:11;;;;;;;;;;;27.50;39.10;;;;;;5091744;28;1011;-42
2022/06/15 11:39:41;;;;;;;;;;;27.40;39.40;;;;;;5092052;28;888;-42
2022/06/15 11:42:11;;;;;;;;;;;27.40;40.80;;;;;;5093340;28;1025;-42
2022/06/15 11:44:40;;;;;;;;;;;27.40;39.70;;;;;;5092900;28;995;-44
2022/06/15 11:47:13;;;;;;;;;;;27.30;39.80;;;;;;5092755;28;1038;-42
2022/06/15 11:49:47;;;;;;;;;;;27.30;39.90;;;;;;5092929;28;935;-43
2022/06/15 11:52:26;;;;;;;;;;;27.40;40.00;;;;;;5092573;28;999;-44
2022/06/15 11:55:03;;;;;;;;;;;27.50;39.80;;;;;;5093676;28;1003;-45
2022/06/15 11:57:36;;;;;;;;;;;27.50;39.80;;;;;;5094148;28;1310;-39
2022/06/15 12:00:09;;;;;;;;;;;27.60;39.90;;;;;;5095749;28;997;-37
2022/06/15 12:02:41;;;;;;;;;;;27.60;40.00;;;;;;5096277;28;1109;-38
2022/06/15 12:05:16;;;;;;;;;;;27.60;39.90;;;;;;5095704;28;968;-37
2022/06/15 12:07:50;;;;;;;;;;;27.70;39.70;;;;;;5094595;28;1006;-37
2022/06/15 12:10:26;;;;;;;;;;;27.70;39.70;;;;;;5093477;28;928;-37
2022/06/15 12:12:56;;;;;;;;;;;27.70;39.50;;;;;;5091846;28;1972;-37
2022/06/15 12:15:29;;;;;;;;;;;27.70;39.70;;;;;;5092163;28;979;-37
2022/06/15 12:17:59;;;;;;;;;;;27.70;40.00;;;;;;5093003;28;1003;-37
2022/06/15 12:20:35;;;;;;;;;;;27.70;40.00;;;;;;5092154;28;1014;-37
2022/06/15 12:23:05;;;;;;;;;;;27.70;40.00;;;;;;5092939;28;1000;-37
2022/06/15 12:25:35;;;;;;;;;;;27.70;40.00;;;;;;5091732;28;901;-37
2022/06/15 12:28:09;;;;;;;;;;;27.70;40.10;;;;;;5092378;28;1012;-37
2022/06/15 12:30:39;;;;;;;;;;;27.70;40.10;;;;;;5091848;28;989;-37
2022/06/15 12:33:11;;;;;;;;;;;27.70;40.00;;;;;;5091880;28;1918;-40
2022/06/15 12:35:39;;;;;;;;;;;27.70;40.20;;;;;;5091834;28;1610;-37
2022/06/15 12:38:13;;;;;;;;;;;27.70;40.10;;;;;;5091714;28;980;-37
2022/06/15 12:40:41;;;;;;;;;;;27.70;40.00;;;;;;5091792;28;996;-37
2022/06/15 12:43:15;;;;;;;;;;;27.70;40.00;;;;;;5091286;28;1331;-37
2022/06/15 12:45:44;;;;;;;;;;;27.70;39.90;;;;;;5093040;28;1047;-37
2022/06/15 12:48:13;;;;;;;;;;;27.70;40.20;;;;;;5092143;28;935;-37
2022/06/15 12:50:45;;;;;;;;;;;27.70;40.20;;;;;;5091597;28;1014;-37
2022/06/15 12:53:23;;;;;;;;;;;27.70;40.20;;;;;;5095404;28;1971;-38
2022/06/15 12:55:54;;;;;;;;;;;27.70;40.00;;;;;;5094575;28;1035;-36
2022/06/15 12:58:27;;;;;;;;;;;27.60;40.30;;;;;;5093187;28;1308;-37
2022/06/15 13:00:57;;;;;;;;;;;27.60;40.30;;;;;;5093679;28;935;-37
2022/06/15 13:03:33;;;;;;;;;;;27.60;40.40;;;;;;5094242;28;935;-36
2022/06/15 13:06:18;;;;;;;;;;;27.60;40.50;;;;;;5093286;28;996;-36
2022/06/15 13:08:46;;;;;;;;;;;27.50;40.50;;;;;;5093088;28;980;-36
2022/06/15 13:11:14;;;;;;;;;;;27.50;40.50;;;;;;5094699;28;944;-36
2022/06/15 13:13:45;;;;;;;;;;;27.60;40.60;;;;;;5094545;28;1894;-36
2022/06/15 13:16:13;;;;;;;;;;;27.50;40.50;;;;;;5093820;28;971;-37
2022/06/15 13:18:46;;;;;;;;;;;27.50;40.70;;;;;;5093007;28;1745;-36
2022/06/15 13:21:13;;;;;;;;;;;27.60;40.70;;;;;;5096215;28;952;-36
2022/06/15 13:23:41;;;;;;;;;;;27.50;40.50;;;;;;5096316;28;1163;-36
2022/06/15 13:26:13;;;;;;;;;;;27.60;40.50;;;;;;5097745;28;935;-36
2022/06/15 13:28:41;;;;;;;;;;;27.60;40.50;;;;;;5095024;28;972;-36
2022/06/15 13:31:10;;;;;;;;;;;27.70;40.60;;;;;;5095801;28;983;-36
2022/06/15 13:33:57;;;;;;;;;;;27.80;41.00;;;;;;5096395;28;1992;-36
2022/06/15 13:36:24;;;;;;;;;;;27.70;40.90;;;;;;5097770;28;1007;-36
2022/06/15 13:38:51;;;;;;;;;;;27.70;40.90;;;;;;5098757;28;1361;-36
2022/06/15 13:41:23;;;;;;;;;;;27.70;40.90;;;;;;5097389;28;1008;-36
2022/06/15 13:44:09;;;;;;;;;;;27.70;40.90;;;;;;5095481;28;1002;-36
2022/06/15 13:46:38;;;;;;;;;;;27.70;41.10;;;;;;5095119;28;978;-36
2022/06/15 13:49:06;;;;;;;;;;;27.70;41.00;;;;;;5095543;28;1214;-36
2022/06/15 13:51:36;;;;;;;;;;;27.70;40.70;;;;;;5096197;28;1034;-35
2022/06/15 13:54:05;;;;;;;;;;;27.80;40.70;;;;;;5095887;28;1910;-38
2022/06/15 13:56:33;;;;;;;;;;;27.90;40.70;;;;;;5095665;28;1025;-38
2022/06/15 13:59:09;;;;;;;;;;;27.90;40.70;;;;;;5094925;28;1015;-39
2022/06/15 14:01:47;;;;;;;;;;;28.00;40.40;;;;;;5096418;28;1031;-39
2022/06/15 14:04:20;;;;;;;;;;;28.10;40.30;;;;;;5094992;28;1067;-39
2022/06/15 14:07:06;;;;;;;;;;;28.10;40.30;;;;;;5096716;28;978;-39
2022/06/15 14:09:43;;;;;;;;;;;28.10;40.20;;;;;;5095218;28;1876;-39
2022/06/15 14:12:25;;;;;;;;;;;28.10;40.20;;;;;;5095104;28;985;-39
2022/06/15 14:15:06;;;;;;;;;;;28.10;40.30;;;;;;5095993;28;1973;-39
2022/06/15 14:17:42;;;;;;;;;;;28.10;40.30;;;;;;5095080;28;1019;-38
2022/06/15 14:20:11;;;;;;;;;;;28.20;40.30;;;;;;5096107;28;1011;-39
2022/06/15 14:22:45;;;;;;;;;;;28.20;40.20;;;;;;5094427;28;893;-39
2022/06/15 14:25:15;;;;;;;;;;;28.20;40.20;;;;;;5095829;28;927;-38
2022/06/15 14:27:42;;;;;;;;;;;28.20;40.10;;;;;;5095830;28;931;-39
2022/06/15 14:30:18;;;;;;;;;;;28.20;40.20;;;;;;5095499;28;867;-39
2022/06/15 14:32:45;;;;;;;;;;;28.20;40.00;;;;;;5095455;28;1014;-39
2022/06/15 14:35:17;;;;;;;;;;;28.20;40.10;;;;;;5095044;28;1902;-39
2022/06/15 14:37:43;;;;;;;;;;;28.30;40.10;;;;;;5095033;28;976;-39
2022/06/15 14:40:27;;;;;;;;;;;28.30;40.00;;;;;;5095231;28;868;-39
2022/06/15 14:42:57;;;;;;;;;;;28.40;39.90;;;;;;5094901;28;944;-39
2022/06/15 14:45:25;;;;;;;;;;;28.30;40.00;;;;;;5095269;28;833;-40
2022/06/15 14:47:52;;;;;;;;;;;28.40;40.00;;;;;;5094429;28;984;-39
2022/06/15 14:50:21;;;;;;;;;;;28.40;40.00;;;;;;5095307;28;1026;-39
2022/06/15 14:52:47;;;;;;;;;;;28.40;40.00;;;;;;5094416;28;1121;-39
2022/06/15 14:55:17;;;;;;;;;;;28.40;40.00;;;;;;5094745;28;1979;-38
2022/06/15 14:57:44;;;;;;;;;;;28.40;41.10;;;;;;5095017;28;983;-38
2022/06/15 15:00:19;;;;;;;;;;;28.40;39.80;;;;;;5094582;28;937;-40
2022/06/15 15:02:48;;;;;;;;;;;28.40;39.80;;;;;;5094755;28;1035;-42
2022/06/15 15:05:15;;;;;;;;;;;28.50;39.90;;;;;;5094106;28;963;-40
2022/06/15 15:10:30;;;;;;;;;;;28.50;39.70;;;;;;5093375;28;645;-41